Time;durP1;ratioP1;P1;durP2;ratioP2;P2;SDS_P1;SDS_P2;PMS_P1;PMS_P2;Temp;Humidity;BMP_temperature;BMP_pressure;BME280_temperature;BME280_humidity;BME280_pressure;Samples;Min_cycle;Max_cycle;Signal;HPM_P1;HPM_P2
2021/11/04 00:01:59;;;;;;;33.28;25.88;;;;;;;8.19;100.00;100424.38;4831172;29;20037;-80
2021/11/04 00:04:25;;;;;;;39.85;27.23;;;;;;;8.18;100.00;100425.41;4845518;29;20117;-80
2021/11/04 00:06:53;;;;;;;36.60;25.77;;;;;;;8.16;100.00;100428.25;4845627;29;20083;-80
2021/11/04 00:09:18;;;;;;;37.60;27.02;;;;;;;8.15;100.00;100429.28;4812405;29;20034;-80
2021/11/04 00:11:44;;;;;;;38.22;27.75;;;;;;;8.15;100.00;100433.84;4844512;29;20092;-80
2021/11/04 00:14:09;;;;;;;37.78;27.30;;;;;;;8.06;100.00;100418.91;4844139;29;20120;-80
2021/11/04 00:16:35;;;;;;;39.92;27.05;;;;;;;8.12;100.00;100439.56;4843874;29;20030;-80
2021/11/04 00:19:00;;;;;;;44.47;27.70;;;;;;;8.10;100.00;100439.75;4846668;29;20093;-80
2021/11/04 00:21:26;;;;;;;38.03;26.30;;;;;;;8.10;100.00;100430.88;4831811;29;20042;-80
2021/11/04 00:23:51;;;;;;;38.80;26.88;;;;;;;8.11;100.00;100435.22;4814100;29;20069;-80
2021/11/04 00:26:17;;;;;;;40.05;27.45;;;;;;;8.11;100.00;100435.22;4828782;29;20034;-79
2021/11/04 00:28:42;;;;;;;37.80;27.48;;;;;;;8.10;100.00;100441.59;4842979;29;20149;-80
2021/11/04 00:31:09;;;;;;;34.50;25.65;;;;;;;8.10;100.00;100441.59;4844190;29;20453;-80
2021/11/04 00:33:37;;;;;;;37.28;26.90;;;;;;;8.03;100.00;100425.47;4828837;29;20480;-79
2021/11/04 00:36:03;;;;;;;41.25;27.75;;;;;;;8.07;100.00;100436.63;4827576;29;20094;-80
2021/11/04 00:38:28;;;;;;;41.70;28.30;;;;;;;8.07;100.00;100445.47;4843942;29;20038;-80
2021/11/04 00:40:55;;;;;;;40.75;27.27;;;;;;;7.96;100.00;100425.41;4843584;29;20102;-80
2021/11/04 00:43:21;;;;;;;40.05;27.70;;;;;;;8.09;100.00;100438.09;4841915;29;20058;-80
2021/11/04 00:45:47;;;;;;;44.15;28.35;;;;;;;8.12;100.00;100444.94;4843305;29;20112;-80
2021/11/04 00:48:12;;;;;;;36.90;28.83;;;;;;;7.85;100.00;100404.50;4826958;29;20094;-80
2021/11/04 00:50:37;;;;;;;42.75;29.30;;;;;;;8.14;100.00;100446.38;4843421;29;20034;-80
2021/11/04 00:53:03;;;;;;;38.75;27.23;;;;;;;8.12;100.00;100442.25;4833776;29;20090;-80
2021/11/04 00:55:28;;;;;;;41.92;28.02;;;;;;;8.14;100.00;100442.88;4844384;29;20106;-80
2021/11/04 00:57:54;;;;;;;39.03;27.95;;;;;;;8.14;100.00;100442.88;4845175;29;20118;-80
2021/11/04 01:00:20;;;;;;;43.10;28.35;;;;;;;8.03;100.00;100435.34;4843134;29;20038;-80
2021/11/04 01:02:45;;;;;;;40.20;29.10;;;;;;;7.96;100.00;100429.94;4843999;29;20026;-79
2021/11/04 01:05:11;;;;;;;39.58;28.80;;;;;;;8.07;100.00;100450.03;4828109;29;20178;-80
2021/11/04 01:07:37;;;;;;;39.95;28.90;;;;;;;7.85;100.00;100415.19;4841597;29;20030;-80
2021/11/04 01:10:04;;;;;;;35.58;28.25;;;;;;;8.05;100.00;100444.03;4841951;29;20030;-79
2021/11/04 01:12:30;;;;;;;41.65;28.60;;;;;;;8.05;100.00;100449.41;4813307;29;20090;-80
2021/11/04 01:14:56;;;;;;;42.10;28.65;;;;;;;8.05;100.00;100446.72;4847951;29;20478;-79
2021/11/04 01:17:21;;;;;;;39.08;28.58;;;;;;;8.06;100.00;100451.06;4826831;29;20038;-80
2021/11/04 01:19:47;;;;;;;42.40;29.50;;;;;;;7.87;100.00;100421.19;4827442;29;20372;-80
2021/11/04 01:22:12;;;;;;;42.63;28.98;;;;;;;8.08;100.00;100446.31;4844659;29;20045;-79
2021/11/04 01:24:38;;;;;;;42.10;29.42;;;;;;;8.03;100.00;100435.34;4843666;29;20112;-80
2021/11/04 01:27:03;;;;;;;38.53;28.50;;;;;;;8.07;100.00;100450.03;4844126;29;20086;-80
2021/11/04 01:29:29;;;;;;;39.47;28.50;;;;;;;8.06;100.00;100443.84;4844632;29;20042;-80
2021/11/04 01:31:54;;;;;;;37.60;27.63;;;;;;;8.06;100.00;100451.06;4848495;29;20030;-80
2021/11/04 01:34:20;;;;;;;40.42;29.30;;;;;;;8.05;100.00;100454.75;4819816;29;20402;-80
2021/11/04 01:36:46;;;;;;;37.13;28.65;;;;;;;8.05;100.00;100444.88;4851095;29;20454;-79
2021/11/04 01:39:11;;;;;;;36.97;28.83;;;;;;;8.04;100.00;100443.19;4830659;29;20049;-79
2021/11/04 01:41:37;;;;;;;44.47;30.50;;;;;;;8.04;100.00;100437.00;4830763;29;20384;-80
2021/11/04 01:44:03;;;;;;;41.42;30.40;;;;;;;8.08;100.00;100454.34;4846946;29;20042;-80
2021/11/04 01:46:29;;;;;;;38.97;28.75;;;;;;;8.06;100.00;100443.84;4846439;29;20025;-79
2021/11/04 01:48:56;;;;;;;41.22;30.88;;;;;;;7.84;100.00;100410.84;4845662;29;20098;-80
2021/11/04 01:51:21;;;;;;;44.88;29.65;;;;;;;8.10;100.00;100449.63;4830613;29;20042;-80
2021/11/04 01:53:47;;;;;;;40.38;29.23;;;;;;;8.10;100.00;100445.09;4829560;29;20038;-80
2021/11/04 01:56:13;;;;;;;40.72;30.17;;;;;;;8.03;100.00;100440.72;4833108;29;20904;-80
2021/11/04 01:58:38;;;;;;;39.97;29.02;;;;;;;8.04;100.00;100443.19;4847349;29;20110;-80
2021/11/04 02:01:04;;;;;;;41.75;30.02;;;;;;;8.04;100.00;100442.34;4847092;29;20632;-80
2021/11/04 02:03:49;;;;;;;42.70;29.65;;;;;;;8.07;100.00;100453.53;4863596;29;20467;-80
2021/11/04 02:06:53;;;;;;;43.05;30.85;;;;;;;8.07;100.00;100452.69;4851822;29;20022;-80
2021/11/04 02:10:09;;;;;;;42.55;30.27;;;;;;;8.07;100.00;100453.53;4822954;29;20072;-79
2021/11/04 02:13:06;;;;;;;41.53;30.98;;;;;;;8.07;100.00;100460.75;4820655;29;20046;-79
2021/11/04 02:15:36;;;;;;;41.50;30.35;;;;;;;8.05;100.00;100458.25;4828050;29;20106;-79
2021/11/04 02:18:07;;;;;;;45.70;30.73;;;;;;;7.93;100.00;100441.84;4827506;29;20456;-79
2021/11/04 02:20:54;;;;;;;40.38;31.63;;;;;;;8.09;100.00;100464.06;4836632;29;20094;-79
2021/11/04 02:24:12;;;;;;;43.85;31.13;;;;;;;8.10;100.00;100458.50;4845730;29;20037;-79
2021/11/04 02:26:38;;;;;;;36.00;30.33;;;;;;;8.11;100.00;100462.00;4808682;29;20069;-80
2021/11/04 02:29:06;;;;;;;36.63;29.63;;;;;;;8.12;100.00;100461.00;4828521;29;20037;-80
2021/11/04 02:31:34;;;;;;;44.90;30.50;;;;;;;8.13;100.00;100468.03;4845289;29;20034;-80
2021/11/04 02:34:00;;;;;;;40.22;29.45;;;;;;;8.15;100.00;100466.00;4844957;29;20045;-80
2021/11/04 02:36:28;;;;;;;41.08;29.60;;;;;;;8.16;100.00;100464.97;4830263;29;20057;-80
2021/11/04 02:38:55;;;;;;;41.75;30.02;;;;;;;8.16;100.00;100470.31;4829272;29;20048;-80
2021/11/04 02:41:21;;;;;;;46.45;30.67;;;;;;;8.17;100.00;100464.75;4845797;29;20116;-79
2021/11/04 02:43:47;;;;;;;43.72;30.08;;;;;;;8.19;100.00;100465.41;4835384;29;20038;-80
2021/11/04 02:46:14;;;;;;;38.45;29.55;;;;;;;8.20;100.00;100460.88;4864796;29;20124;-80
2021/11/04 02:48:41;;;;;;;40.85;29.60;;;;;;;8.15;100.00;100450.72;4841501;29;20026;-80
2021/11/04 02:51:07;;;;;;;37.40;29.10;;;;;;;8.14;100.00;100450.91;4848587;29;20044;-80
2021/11/04 02:53:33;;;;;;;39.83;29.40;;;;;;;8.18;100.00;100460.25;4851031;29;20034;-80
2021/11/04 02:55:59;;;;;;;41.63;28.27;;;;;;;8.17;100.00;100458.56;4827360;29;20038;-79
2021/11/04 02:58:26;;;;;;;40.83;28.45;;;;;;;8.15;100.00;100472.19;4845089;29;20089;-79
2021/11/04 03:00:55;;;;;;;41.17;28.75;;;;;;;8.02;100.00;100452.47;4845631;29;20030;-79
2021/11/04 03:03:20;;;;;;;39.78;29.80;;;;;;;8.11;100.00;100470.91;4846470;29;20041;-80
2021/11/04 03:05:46;;;;;;;40.33;29.23;;;;;;;8.09;100.00;100466.75;4859554;29;20029;-79
2021/11/04 03:08:12;;;;;;;44.30;29.67;;;;;;;8.08;100.00;100473.09;4843863;29;20041;-80
2021/11/04 03:10:38;;;;;;;40.38;29.65;;;;;;;8.08;100.00;100473.97;4828334;29;20045;-79
2021/11/04 03:13:04;;;;;;;37.55;28.83;;;;;;;7.80;100.00;100422.97;4828330;29;20034;-79
2021/11/04 03:15:35;;;;;;;39.03;30.02;;;;;;;8.04;100.00;100458.44;4827637;29;20041;-79
2021/11/04 03:18:01;;;;;;;42.70;29.67;;;;;;;8.03;100.00;100467.50;4847173;29;20032;-80
2021/11/04 03:20:27;;;;;;;37.95;28.25;;;;;;;7.93;100.00;100452.56;4829468;29;20029;-80
2021/11/04 03:22:53;;;;;;;41.28;28.77;;;;;;;8.03;100.00;100467.50;4846064;29;20093;-79
2021/11/04 03:25:20;;;;;;;39.38;28.35;;;;;;;8.00;100.00;100469.53;4849395;29;20057;-80
2021/11/04 03:27:51;;;;;;;42.40;27.95;;;;;;;8.00;100.00;100474.91;4849396;29;20046;-80
2021/11/04 03:30:21;;;;;;;37.83;25.90;;;;;;;8.02;100.00;100484.63;4829980;29;20045;-80
2021/11/04 03:32:48;;;;;;;34.33;24.38;;;;;;;7.96;100.00;100481.66;4845341;29;20025;-79
2021/11/04 03:35:15;;;;;;;33.08;24.05;;;;;;;7.98;100.00;100487.66;4856086;29;20030;-80
2021/11/04 03:37:45;;;;;;;38.90;26.52;;;;;;;7.96;100.00;100486.19;4855609;29;20078;-80
2021/11/04 03:40:12;;;;;;;39.28;26.60;;;;;;;7.83;100.00;100462.75;4851843;29;20032;-80
2021/11/04 03:42:40;;;;;;;43.58;27.92;;;;;;;7.90;100.00;100471.69;4854341;29;20044;-80
2021/11/04 03:45:10;;;;;;;38.45;27.50;;;;;;;7.98;100.00;100486.84;4868739;29;20128;-79
2021/11/04 03:47:36;;;;;;;36.30;28.35;;;;;;;7.97;100.00;100488.66;4857673;29;20029;-80
2021/11/04 03:50:05;;;;;;;36.72;26.98;;;;;;;7.94;100.00;100474.81;4829346;29;20041;-80
2021/11/04 03:52:31;;;;;;;37.42;28.05;;;;;;;7.98;100.00;100486.84;4844120;29;20033;-79
2021/11/04 03:54:57;;;;;;;40.92;29.02;;;;;;;7.95;100.00;100485.38;4845285;29;20049;-80
2021/11/04 03:57:25;;;;;;;45.20;28.90;;;;;;;7.92;100.00;100482.25;4844954;29;20144;-80
2021/11/04 03:59:51;;;;;;;37.72;28.33;;;;;;;8.01;100.00;100486.44;4815266;29;20042;-80
2021/11/04 04:02:17;;;;;;;44.20;29.90;;;;;;;8.00;100.00;100490.97;4845822;29;20091;-80
2021/11/04 04:04:50;;;;;;;37.55;29.30;;;;;;;7.91;100.00;100476.06;4828771;29;20385;-80
2021/11/04 04:07:15;;;;;;;39.95;28.92;;;;;;;7.90;100.00;100469.03;4849589;29;20444;-79
2021/11/04 04:09:41;;;;;;;45.65;30.30;;;;;;;7.96;100.00;100478.97;4842733;29;20246;-79
2021/11/04 04:12:07;;;;;;;40.47;28.52;;;;;;;7.93;100.00;100476.69;4843810;29;20090;-80
2021/11/04 04:14:32;;;;;;;40.20;30.55;;;;;;;7.91;100.00;100481.41;4828824;29;20465;-80
2021/11/04 04:16:58;;;;;;;45.72;31.02;;;;;;;7.68;100.00;100446.75;4829012;29;20038;-80
2021/11/04 04:19:23;;;;;;;43.00;29.67;;;;;;;7.80;100.00;100483.75;4844442;29;20391;-80
2021/11/04 04:21:48;;;;;;;48.65;30.17;;;;;;;7.67;100.00;100487.09;4828364;29;20116;-80
2021/11/04 04:24:14;;;;;;;37.53;28.85;;;;;;;7.60;100.00;100483.50;4843364;29;20026;-79
2021/11/04 04:26:41;;;;;;;43.75;31.45;;;;;;;7.56;100.00;100496.44;4828622;29;20411;-80
2021/11/04 04:29:06;;;;;;;44.50;31.08;;;;;;;7.50;100.00;100491.84;4844552;29;20105;-80
2021/11/04 04:31:32;;;;;;;48.17;32.95;;;;;;;7.44;100.00;100493.41;4844847;29;20138;-79
2021/11/04 04:33:57;;;;;;;52.53;33.13;;;;;;;7.39;100.00;100497.66;4843286;29;20049;-80
2021/11/04 04:36:23;;;;;;;50.22;32.58;;;;;;;7.33;100.00;100499.25;4849180;29;20372;-80
2021/11/04 04:38:48;;;;;;;47.58;32.67;;;;;;;7.23;100.00;100483.47;4849109;29;20045;-80
2021/11/04 04:41:13;;;;;;;45.47;33.45;;;;;;;7.22;100.00;100492.50;4853915;29;20025;-80
2021/11/04 04:43:39;;;;;;;45.38;33.03;;;;;;;7.12;100.00;100491.97;4832421;29;20037;-80
2021/11/04 04:46:04;;;;;;;43.58;30.50;;;;;;;6.90;100.00;100469.63;4829863;29;20030;-79
2021/11/04 04:48:30;;;;;;;46.95;31.38;;;;;;;6.99;100.00;100497.13;4842383;29;20021;-80
2021/11/04 04:50:55;;;;;;;42.60;31.83;;;;;;;6.94;100.00;100494.16;4845455;29;20055;-80
2021/11/04 04:53:20;;;;;;;43.05;32.20;;;;;;;6.91;100.00;100499.84;4854890;29;20034;-80
2021/11/04 04:55:46;;;;;;;45.95;31.88;;;;;;;6.87;100.00;100499.41;4821542;29;20029;-80
2021/11/04 04:58:11;;;;;;;46.88;31.08;;;;;;;6.82;100.00;100504.44;4827985;29;20140;-80
2021/11/04 05:00:37;;;;;;;46.83;31.70;;;;;;;6.75;100.00;100500.84;4827421;29;20045;-80
2021/11/04 05:03:05;;;;;;;44.95;30.30;;;;;;;6.80;100.00;100515.34;4827604;29;20046;-80
2021/11/04 05:05:30;;;;;;;43.88;31.38;;;;;;;6.81;100.00;100510.81;4846763;29;20045;-80
2021/11/04 05:07:56;;;;;;;45.92;29.67;;;;;;;6.82;100.00;100520.50;4831196;29;20034;-79
2021/11/04 05:10:21;;;;;;;43.58;31.42;;;;;;;6.88;100.00;100519.78;4847748;29;20038;-80
2021/11/04 05:12:46;;;;;;;40.33;30.73;;;;;;;6.74;100.00;100496.50;4845319;29;20034;-80
2021/11/04 05:15:12;;;;;;;35.75;28.20;;;;;;;6.97;100.00;100532.06;4860853;29;20049;-80
2021/11/04 05:17:38;;;;;;;37.42;28.90;;;;;;;7.00;100.00;100536.22;4832508;29;20037;-80
2021/11/04 05:20:05;;;;;;;41.40;30.23;;;;;;;7.02;100.00;100537.72;4819276;29;20098;-80
2021/11/04 05:22:30;;;;;;;40.67;27.67;;;;;;;7.06;100.00;100535.50;4836594;29;20079;-79
2021/11/04 05:24:56;;;;;;;46.40;29.45;;;;;;;7.07;100.00;100532.63;4847439;29;20026;-81
2021/11/04 05:27:21;;;;;;;42.63;28.58;;;;;;;7.11;100.00;100535.75;4844356;29;20056;-81
2021/11/04 05:29:46;;;;;;;37.90;28.33;;;;;;;7.15;100.00;100545.09;4866285;29;20025;-81
2021/11/04 05:32:12;;;;;;;38.92;28.48;;;;;;;7.17;100.00;100542.22;4842310;29;20121;-81
2021/11/04 05:34:39;;;;;;;44.35;29.20;;;;;;;7.18;100.00;100542.03;4845503;29;20153;-79
2021/11/04 05:37:06;;;;;;;42.85;29.35;;;;;;;7.20;100.00;100537.34;4826571;29;20497;-80
2021/11/04 05:39:31;;;;;;;38.25;26.92;;;;;;;7.20;100.00;100540.03;4840660;29;20040;-78
2021/11/04 05:41:56;;;;;;;39.75;27.55;;;;;;;7.20;100.00;100537.34;4829785;29;20607;-79
2021/11/04 05:44:22;;;;;;;43.22;28.15;;;;;;;7.18;100.00;100535.84;4830702;29;20068;-80
2021/11/04 05:46:47;;;;;;;34.70;26.88;;;;;;;7.12;100.00;100523.22;4851748;29;20350;-81
2021/11/04 05:49:13;;;;;;;38.35;27.02;;;;;;;7.10;100.00;100534.09;4828493;29;20069;-80
2021/11/04 05:51:38;;;;;;;36.83;25.67;;;;;;;7.11;100.00;100537.59;4845710;29;20148;-80
2021/11/04 05:54:04;;;;;;;33.20;26.05;;;;;;;7.07;100.00;100537.16;4843223;29;20124;-80
2021/11/04 05:56:29;;;;;;;39.00;25.85;;;;;;;6.95;100.00;100526.03;4826952;29;20069;-80
2021/11/04 05:58:55;;;;;;;32.88;25.55;;;;;;;7.00;100.00;100547.75;4853909;29;20364;-81
2021/11/04 06:01:21;;;;;;;38.08;26.05;;;;;;;6.94;100.00;100537.78;4844521;29;20545;-79
2021/11/04 06:03:46;;;;;;;37.72;25.55;;;;;;;6.86;100.00;100532.50;4840418;29;20034;-79
2021/11/04 06:06:11;;;;;;;33.95;24.58;;;;;;;6.81;100.00;100535.72;4838675;29;20052;-79
2021/11/04 06:08:37;;;;;;;34.97;26.00;;;;;;;6.78;100.00;100537.91;4841450;29;20030;-79
2021/11/04 06:11:03;;;;;;;35.13;25.23;;;;;;;6.73;100.00;100545.66;4811140;29;20041;-79
2021/11/04 06:13:28;;;;;;;34.22;24.65;;;;;;;6.67;100.00;100543.72;4839920;29;20030;-80
2021/11/04 06:15:54;;;;;;;33.22;23.95;;;;;;;6.47;100.00;100530.00;4852301;29;20053;-80
2021/11/04 06:18:19;;;;;;;38.47;24.42;;;;;;;6.30;100.00;100526.63;4846526;29;20026;-79
2021/11/04 06:20:45;;;;;;;35.58;23.35;;;;;;;6.42;100.00;100554.56;4827973;29;20056;-79
2021/11/04 06:23:11;;;;;;;38.50;24.80;;;;;;;6.32;100.00;100545.97;4826722;29;20033;-78
2021/11/04 06:25:37;;;;;;;38.55;24.48;;;;;;;6.36;100.00;100566.00;4828016;29;20460;-80
2021/11/04 06:28:02;;;;;;;33.05;24.88;;;;;;;6.27;100.00;100570.56;4845152;29;20038;-80
2021/11/04 06:30:28;;;;;;;31.98;23.15;;;;;;;6.20;100.00;100571.44;4831877;29;20030;-79
2021/11/04 06:32:53;;;;;;;38.50;23.92;;;;;;;6.16;100.00;100578.97;4826012;29;20520;-79
2021/11/04 06:35:20;;;;;;;40.53;24.58;;;;;;;6.10;100.00;100580.50;4829749;29;20066;-79
2021/11/04 06:37:46;;;;;;;33.88;21.88;;;;;;;5.99;100.00;100566.69;4846672;29;20042;-80
2021/11/04 06:40:11;;;;;;;32.53;23.95;;;;;;;6.04;100.00;100578.53;4829723;29;20067;-79
2021/11/04 06:42:37;;;;;;;29.55;21.58;;;;;;;5.98;100.00;100581.06;4837664;29;20045;-79
2021/11/04 06:45:07;;;;;;;33.78;22.23;;;;;;;5.95;100.00;100584.09;4839518;29;20481;-80
2021/11/04 06:47:42;;;;;;;33.08;22.63;;;;;;;5.81;100.00;100569.59;4839782;29;20108;-79
2021/11/04 06:50:10;;;;;;;35.72;23.45;;;;;;;5.85;100.00;100582.44;4827132;29;20058;-79
2021/11/04 06:52:38;;;;;;;33.78;24.75;;;;;;;5.88;100.00;100598.09;4837058;29;20480;-79
2021/11/04 06:55:05;;;;;;;34.92;27.55;;;;;;;5.83;100.00;100581.78;4841459;29;20097;-79
2021/11/04 06:57:34;;;;;;;46.17;28.88;;;;;;;5.91;100.00;100583.56;4840966;29;20226;-79
2021/11/04 07:00:03;;;;;;;50.75;31.00;;;;;;;6.00;100.00;100598.59;4840582;29;20038;-79
2021/11/04 07:02:35;;;;;;;45.97;30.02;;;;;;;6.02;100.00;100601.91;4841141;29;20128;-79
2021/11/04 07:05:04;;;;;;;46.63;30.80;;;;;;;5.95;100.00;100584.91;4823497;29;20061;-79
2021/11/04 07:07:38;;;;;;;50.28;32.03;;;;;;;5.96;100.00;100580.41;4840797;29;20057;-79
2021/11/04 07:10:04;;;;;;;53.15;33.20;;;;;;;6.09;100.00;100592.22;4839712;29;20044;-80
2021/11/04 07:12:30;;;;;;;53.08;32.85;;;;;;;6.10;100.00;100588.53;4823037;29;20042;-79
2021/11/04 07:14:58;;;;;;;48.60;32.70;;;;;;;6.15;100.00;100597.84;4839168;29;20042;-79
2021/11/04 07:17:25;;;;;;;58.50;32.78;;;;;;;6.17;100.00;100601.19;4840878;29;20036;-80
2021/11/04 07:19:50;;;;;;;54.78;30.17;;;;;;;6.16;100.00;100596.81;4844099;29;20045;-79
2021/11/04 07:22:25;;;;;;;56.75;31.73;;;;;;;6.14;100.00;100605.03;4840565;29;20044;-79
2021/11/04 07:25:13;;;;;;;;;;;;;;;6.09;100.00;100602.91;4840407;29;20043;-81
2021/11/04 07:27:50;;;;;;;56.60;31.75;;;;;;;6.13;100.00;100607.91;4832342;29;20268;-79
2021/11/04 07:30:18;;;;;;;56.17;32.30;;;;;;;6.15;100.00;100608.53;4838071;29;20061;-79
2021/11/04 07:32:52;;;;;;;58.88;33.55;;;;;;;6.19;100.00;100601.81;4842033;29;20032;-79
2021/11/04 07:35:22;;;;;;;61.85;33.72;;;;;;;6.25;100.00;100606.47;4839930;29;20034;-79
2021/11/04 07:37:48;;;;;;;58.05;34.40;;;;;;;6.20;100.00;100590.97;4842066;29;20073;-79
2021/11/04 07:40:15;;;;;;;60.78;33.65;;;;;;;6.33;100.00;100609.13;4840137;29;20075;-79
2021/11/04 07:42:42;;;;;;;61.75;32.88;;;;;;;6.41;100.00;100616.25;4841975;29;20034;-79
2021/11/04 07:45:08;;;;;;;61.75;33.58;;;;;;;6.39;100.00;100604.88;4826041;29;21411;-80
2021/11/04 07:47:40;;;;;;;56.53;33.78;;;;;;;6.45;100.00;100614.88;4850076;29;20041;-80
2021/11/04 07:50:08;;;;;;;54.33;33.05;;;;;;;6.49;100.00;100621.53;4837878;29;20045;-79
2021/11/04 07:52:34;;;;;;;57.92;32.78;;;;;;;6.49;100.00;100618.84;4838705;29;20030;-79
2021/11/04 07:55:01;;;;;;;57.05;32.63;;;;;;;6.57;100.00;100624.16;4839265;29;20026;-79
2021/11/04 07:57:28;;;;;;;57.70;32.58;;;;;;;6.61;100.00;100633.47;4822156;29;20452;-79
2021/11/04 07:59:53;;;;;;;58.70;32.45;;;;;;;6.67;100.00;100634.63;4841241;29;20041;-79
2021/11/04 08:02:19;;;;;;;57.80;31.67;;;;;;;6.67;100.00;100623.91;4838882;29;20034;-79
2021/11/04 08:04:45;;;;;;;65.47;33.42;;;;;;;6.75;100.00;100639.91;4822531;29;20098;-80
2021/11/04 08:07:10;;;;;;;54.90;31.92;;;;;;;6.77;100.00;100635.22;4825331;29;20086;-79
2021/11/04 08:09:36;;;;;;;56.95;31.83;;;;;;;6.82;100.00;100635.50;4833308;29;20029;-79
2021/11/04 08:12:01;;;;;;;51.70;31.00;;;;;;;6.86;100.00;100644.84;4825016;29;20037;-79
2021/11/04 08:14:27;;;;;;;49.72;30.65;;;;;;;6.93;100.00;100647.63;4843912;29;20417;-79
2021/11/04 08:16:52;;;;;;;45.97;28.77;;;;;;;6.99;100.00;100658.44;4843342;29;20748;-80
2021/11/04 08:19:18;;;;;;;51.47;29.90;;;;;;;7.07;100.00;100665.56;4845362;29;20034;-79
2021/11/04 08:21:43;;;;;;;45.90;28.92;;;;;;;7.13;100.00;100659.50;4826432;29;20045;-79
2021/11/04 08:24:09;;;;;;;45.80;28.75;;;;;;;7.20;100.00;100670.31;4828743;29;20026;-79
2021/11/04 08:26:34;;;;;;;44.15;27.95;;;;;;;7.25;100.00;100675.94;4844512;29;20025;-79
2021/11/04 08:29:02;;;;;;;56.20;29.13;;;;;;;7.33;100.00;100681.25;4842551;29;20090;-80
2021/11/04 08:31:28;;;;;;;44.88;27.65;;;;;;;7.35;100.00;100687.25;4837723;29;20045;-79
2021/11/04 08:33:53;;;;;;;35.67;23.23;;;;;;;7.33;100.00;100670.53;4814339;29;20026;-79
2021/11/04 08:36:20;;;;;;;33.63;22.92;;;;;;;7.48;100.00;100682.13;4839378;29;20029;-79
2021/11/04 08:38:46;;;;;;;32.20;19.98;;;;;;;7.55;100.00;100690.25;4823806;29;20069;-78
2021/11/04 08:41:12;;;;;;;26.38;18.52;;;;;;;7.60;100.00;100687.84;4841989;29;20058;-80
2021/11/04 08:43:37;;;;;;;25.88;17.52;;;;;;;7.73;100.00;100689.91;4839299;29;20151;-79
2021/11/04 08:46:03;;;;;;;22.63;15.15;;;;;;;7.84;100.00;100689.44;4823498;29;20046;-79
2021/11/04 08:48:36;;;;;;;22.20;16.00;;;;;;;7.91;100.00;100685.03;4840182;29;20026;-79
2021/11/04 08:51:09;;;;;;;22.00;14.50;;;;;;;8.05;100.00;100685.22;4831988;29;20029;-79
2021/11/04 08:53:35;;;;;;;23.52;14.05;;;;;;;8.11;100.00;100685.28;4843374;29;20038;-80
2021/11/04 08:56:00;;;;;;;16.98;12.15;;;;;;;8.10;100.00;100678.25;4838264;29;20461;-79
2021/11/04 08:58:26;;;;;;;20.30;12.50;;;;;;;8.22;100.00;100692.84;4838838;29;20114;-80
2021/11/04 09:00:55;;;;;;;18.90;12.38;;;;;;;8.13;100.00;100655.63;4840545;29;20381;-80
2021/11/04 09:03:21;;;;;;;19.13;11.75;;;;;;;8.35;100.00;100684.16;4824095;29;20065;-80
2021/11/04 09:05:47;;;;;;;20.73;11.98;;;;;;;8.32;100.00;100675.66;4840119;29;20098;-79
2021/11/04 09:08:14;;;;;;;17.67;11.55;;;;;;;8.42;100.00;100686.94;4839423;29;20422;-79
2021/11/04 09:10:40;;;;;;;16.23;10.77;;;;;;;8.42;100.00;100686.94;4827055;29;20796;-79
2021/11/04 09:13:08;;;;;;;17.83;10.27;;;;;;;8.42;100.00;100676.22;4840233;29;20034;-79
2021/11/04 09:15:33;;;;;;;21.48;10.77;;;;;;;8.51;100.00;100684.97;4838794;29;20026;-78
2021/11/04 09:18:01;;;;;;;15.63;9.32;;;;;;;8.50;100.00;100688.69;4825721;29;20039;-79
2021/11/04 09:20:27;;;;;;;13.65;9.45;;;;;;;8.45;100.00;100690.09;4840338;29;20033;-80
2021/11/04 09:22:52;;;;;;;14.38;8.55;;;;;;;8.39;100.00;100690.00;4850095;29;20022;-80
2021/11/04 09:25:20;;;;;;;14.57;8.40;;;;;;;8.33;100.00;100694.22;4828876;29;20058;-79
2021/11/04 09:27:46;;;;;;;13.57;7.47;;;;;;;8.28;100.00;100699.34;4839026;29;20030;-79
2021/11/04 09:30:13;;;;;;;10.60;7.43;;;;;;;8.26;100.00;100695.16;4839387;29;20030;-80
2021/11/04 09:32:39;;;;;;;10.57;6.63;;;;;;;8.26;100.00;100698.66;4836587;29;20459;-79
2021/11/04 09:35:05;;;;;;;11.70;6.20;;;;;;;8.22;100.00;100687.50;4837728;29;20105;-80
2021/11/04 09:37:30;;;;;;;13.50;6.07;;;;;;;8.30;100.00;100694.59;4826417;29;20041;-79
2021/11/04 09:39:56;;;;;;;12.02;5.53;;;;;;;8.35;100.00;100697.56;4841286;29;20026;-79
2021/11/04 09:42:22;;;;;;;9.18;5.55;;;;;;;8.39;100.00;100696.19;4831303;29;20048;-80
2021/11/04 09:44:50;;;;;;;10.75;5.20;;;;;;;8.43;100.00;100700.16;4843898;29;20045;-79
2021/11/04 09:47:21;;;;;;;9.77;5.07;;;;;;;8.44;100.00;100700.97;4840235;29;20042;-79
2021/11/04 09:49:48;;;;;;;8.80;5.10;;;;;;;8.51;100.00;100698.38;4851520;29;20073;-80
2021/11/04 09:52:13;;;;;;;9.50;5.22;;;;;;;8.53;100.00;100705.22;4837894;29;20022;-79
2021/11/04 09:54:39;;;;;;;10.43;5.15;;;;;;;8.56;100.00;100709.38;4808831;29;20417;-79
2021/11/04 09:57:09;;;;;;;10.73;4.97;;;;;;;8.53;100.00;100682.94;4856516;29;20506;-80
2021/11/04 09:59:34;;;;;;;10.93;4.60;;;;;;;8.64;100.00;100693.16;4855642;29;20026;-79
2021/11/04 10:02:00;;;;;;;9.82;4.28;;;;;;;8.71;100.00;100694.09;4841342;29;20095;-80
2021/11/04 10:04:33;;;;;;;8.50;3.83;;;;;;;8.76;100.00;100694.34;4856852;29;20117;-79
2021/11/04 10:07:01;;;;;;;9.82;3.97;;;;;;;8.86;100.00;100697.53;4824297;29;20033;-79
2021/11/04 10:09:28;;;;;;;11.15;3.70;;;;;;;8.83;100.00;100700.59;4826516;29;20472;-80
2021/11/04 10:11:54;;;;;;;9.20;3.90;;;;;;;8.83;100.00;100694.41;4844718;29;20034;-80
2021/11/04 10:14:21;;;;;;;7.75;3.63;;;;;;;8.86;100.00;100700.22;4852671;29;20049;-81
2021/11/04 10:16:46;;;;;;;8.40;3.70;;;;;;;8.72;100.00;100665.41;4850666;29;20025;-80
2021/11/04 10:19:15;;;;;;;9.68;3.63;;;;;;;8.84;100.00;100675.47;4859805;29;20033;-80
2021/11/04 10:21:43;;;;;;;11.27;3.75;;;;;;;9.00;100.00;100692.31;4843699;29;20037;-81
2021/11/04 10:24:17;;;;;;;7.10;3.28;;;;;;;9.06;100.00;100683.50;4853731;29;20033;-80
2021/11/04 10:26:42;;;;;;;7.73;3.50;;;;;;;9.16;100.00;100698.25;4855936;29;20066;-80
2021/11/04 10:29:10;;;;;;;8.77;3.50;;;;;;;9.18;100.00;100685.47;4856581;29;20254;-79
2021/11/04 10:31:38;;;;;;;9.25;3.28;;;;;;;9.27;100.00;100690.69;4853569;29;20022;-80
2021/11/04 10:34:13;;;;;;;7.38;3.78;;;;;;;8.63;100.00;100586.91;4833764;29;20117;-80
2021/11/04 10:36:42;;;;;;;7.28;3.50;;;;;;;9.35;100.00;100694.09;4846286;29;20037;-79
2021/11/04 10:39:10;;;;;;;4.75;3.20;;;;;;;9.41;100.00;100695.19;4844609;29;20034;-80
2021/11/04 10:41:41;;;;;;;7.72;3.40;;;;;;;9.46;100.00;100695.41;4847062;29;20037;-80
2021/11/04 10:44:16;;;;;;;5.88;3.33;;;;;;;9.51;100.00;100692.97;4847166;29;20365;-80
2021/11/04 10:46:54;;;;;;;8.55;3.50;;;;;;;9.51;100.00;100687.59;4850839;29;20026;-80
2021/11/04 10:49:21;;;;;;;8.32;3.00;;;;;;;9.58;100.00;100693.03;4859170;29;20029;-80
2021/11/04 10:52:00;;;;;;;7.00;3.05;;;;;;;9.64;100.00;100703.81;4841807;29;20346;-80
2021/11/04 10:54:26;;;;;;;7.10;3.03;;;;;;;9.71;100.00;100701.19;4841401;29;20026;-80
2021/11/04 10:56:52;;;;;;;5.63;3.45;;;;;;;9.76;100.00;100695.22;4823606;29;20533;-80
2021/11/04 10:59:20;;;;;;;7.05;3.20;;;;;;;9.79;100.00;100694.81;4830107;29;20037;-80
2021/11/04 11:01:51;;;;;;;6.22;3.50;;;;;;;9.80;100.00;100685.72;4840468;29;20035;-80
2021/11/04 11:04:23;;;;;;;7.78;3.90;;;;;;;9.75;100.00;100693.56;4827453;29;20079;-80
2021/11/04 11:06:56;;;;;;;5.88;3.60;;;;;;;9.69;100.00;100695.16;4834831;29;20586;-80
2021/11/04 11:09:24;;;;;;;5.82;3.58;;;;;;;9.65;100.00;100689.34;4823143;29;20042;-80
2021/11/04 11:11:56;;;;;;;11.57;3.88;;;;;;;9.68;100.00;100692.69;4840083;29;20167;-80
2021/11/04 11:14:23;;;;;;;13.77;3.80;;;;;;;9.65;100.00;100689.34;4843827;29;20040;-80